Time;durP1;ratioP1;P1;durP2;ratioP2;P2;SDS_P1;SDS_P2;PMS_P1;PMS_P2;Temp;Humidity;BMP_temperature;BMP_pressure;BME280_temperature;BME280_humidity;BME280_pressure;Samples;Min_cycle;Max_cycle;Signal;HPM_P1;HPM_P2
2022/11/12 00:00:51;;;;;;;8.85;5.97;;;;;;;2.80;100.00;103098.19;5035858;28;20532;-75
2022/11/12 00:03:34;;;;;;;13.00;6.53;;;;;;;2.81;100.00;103099.94;5030495;28;20791;-75
2022/11/12 00:06:18;;;;;;;15.95;7.32;;;;;;;2.83;100.00;103096.47;5034487;28;20099;-75
2022/11/12 00:09:03;;;;;;;14.15;7.57;;;;;;;2.97;100.00;103100.91;5038035;28;20133;-76
2022/11/12 00:11:47;;;;;;;13.75;7.97;;;;;;;3.09;100.00;103100.97;5036543;28;20105;-76
2022/11/12 00:14:31;;;;;;;15.50;8.00;;;;;;;3.07;100.00;103098.34;5031881;28;20131;-75
2022/11/12 00:17:15;;;;;;;15.70;7.35;;;;;;;3.05;100.00;103099.19;5037487;28;20052;-76
2022/11/12 00:19:59;;;;;;;16.42;8.40;;;;;;;2.98;100.00;103103.56;5037573;28;20047;-75
2022/11/12 00:22:43;;;;;;;21.42;8.60;;;;;;;2.97;100.00;103107.06;5026613;28;20485;-74
2022/11/12 00:25:27;;;;;;;14.00;7.53;;;;;;;2.96;100.00;103107.94;5022176;28;20095;-75
2022/11/12 00:28:11;;;;;;;13.73;7.25;;;;;;;2.77;100.00;103104.34;5020409;28;20870;-75
2022/11/12 00:30:55;;;;;;;12.98;7.43;;;;;;;2.90;100.00;103104.38;5038297;28;20135;-74
2022/11/12 00:33:41;;;;;;;16.92;8.65;;;;;;;3.11;100.00;103096.56;5035286;28;20386;-75
2022/11/12 00:36:25;;;;;;;20.25;8.85;;;;;;;3.17;100.00;103096.63;5034211;28;20064;-75
2022/11/12 00:39:09;;;;;;;17.92;8.07;;;;;;;3.21;100.00;103090.44;5035988;28;20102;-75
2022/11/12 00:41:53;;;;;;;17.58;8.93;;;;;;;3.11;100.00;103089.56;5037378;28;20099;-75
2022/11/12 00:44:37;;;;;;;13.75;8.18;;;;;;;3.16;100.00;103089.56;5023411;28;20044;-75
2022/11/12 00:47:21;;;;;;;14.20;7.57;;;;;;;3.11;100.00;103097.47;5048035;28;20056;-75
2022/11/12 00:50:06;;;;;;;18.25;9.48;;;;;;;3.01;100.00;103100.03;5055330;28;20047;-73
2022/11/12 00:52:52;;;;;;;16.10;8.52;;;;;;;3.06;100.00;103100.94;5058792;28;20929;-74
2022/11/12 00:55:36;;;;;;;16.27;8.65;;;;;;;2.90;100.00;103096.47;5059452;28;20068;-74
2022/11/12 00:58:20;;;;;;;19.17;9.70;;;;;;;2.96;100.00;103104.41;5060055;28;20051;-77
2022/11/12 01:01:10;;;;;;;14.82;8.50;;;;;;;2.78;100.00;103108.72;5058952;28;20055;-73
2022/11/12 01:03:57;;;;;;;12.70;7.15;;;;;;;2.61;100.00;103105.13;5058040;28;20056;-74
2022/11/12 01:06:41;;;;;;;14.50;6.85;;;;;;;2.68;100.00;103099.00;5059362;28;20116;-75
2022/11/12 01:09:25;;;;;;;11.82;7.60;;;;;;;2.71;100.00;103104.31;5060501;28;20054;-75
2022/11/12 01:12:09;;;;;;;14.82;7.25;;;;;;;2.74;100.00;103108.69;5043958;28;20064;-75
2022/11/12 01:14:53;;;;;;;12.18;7.03;;;;;;;2.78;100.00;103106.09;5054625;28;20155;-75
2022/11/12 01:17:37;;;;;;;11.02;6.20;;;;;;;2.75;100.00;103100.78;5059066;28;20899;-75
2022/11/12 01:20:21;;;;;;;12.32;6.70;;;;;;;2.53;100.00;103105.06;5058768;28;20054;-74
2022/11/12 01:23:05;;;;;;;13.32;5.97;;;;;;;2.50;100.00;103101.50;5055411;28;20051;-76
2022/11/12 01:25:49;;;;;;;10.80;5.80;;;;;;;2.52;100.00;103102.44;5053926;28;20087;-75
2022/11/12 01:28:34;;;;;;;11.45;5.55;;;;;;;2.60;100.00;103105.97;5040475;28;20121;-75
2022/11/12 01:31:29;;;;;;;9.88;6.25;;;;;;;2.69;100.00;103103.41;5052624;28;20144;-76
2022/11/12 01:34:13;;;;;;;12.23;6.38;;;;;;;2.49;100.00;103099.75;5059486;28;20094;-75
2022/11/12 01:36:57;;;;;;;8.38;5.82;;;;;;;2.37;100.00;103094.44;5060669;28;20132;-75
2022/11/12 01:39:41;;;;;;;8.35;4.80;;;;;;;2.36;100.00;103097.91;5060604;28;20075;-75
2022/11/12 01:42:28;;;;;;;8.95;5.40;;;;;;;2.33;100.00;103097.03;5059256;28;20051;-76
2022/11/12 01:45:17;;;;;;;12.43;5.70;;;;;;;2.49;100.00;103086.59;5037247;28;20063;-75
2022/11/12 01:48:01;;;;;;;9.57;5.70;;;;;;;2.50;100.00;103081.31;5059690;28;20471;-75
2022/11/12 01:50:46;;;;;;;11.80;6.68;;;;;;;2.47;100.00;103077.81;5060367;28;20060;-75
2022/11/12 01:53:35;;;;;;;11.70;7.28;;;;;;;2.53;100.00;103078.72;5054574;28;20056;-75
2022/11/12 01:56:21;;;;;;;8.13;5.88;;;;;;;2.50;100.00;103085.72;5060515;28;20063;-75
2022/11/12 01:59:29;;;;;;;11.15;6.65;;;;;;;2.39;100.00;103083.03;5059565;28;20060;-75
2022/11/12 02:02:12;;;;;;;8.65;5.35;;;;;;;2.27;100.00;103075.06;5054223;28;20076;-76
2022/11/12 02:04:58;;;;;;;9.30;5.45;;;;;;;2.42;100.00;103074.28;5044656;28;20050;-75
2022/11/12 02:07:44;;;;;;;11.75;6.45;;;;;;;2.64;100.00;103070.88;5059565;28;20070;-75
2022/11/12 02:10:28;;;;;;;8.70;5.78;;;;;;;2.41;100.00;103075.13;5059656;28;20598;-75
2022/11/12 02:16:17;;;;;;;9.18;6.35;;;;;;;2.06;100.00;103075.78;5059593;28;20052;-74
2022/11/12 02:19:02;;;;;;;10.07;5.30;;;;;;;2.12;100.00;103064.41;5058850;28;20063;-75
2022/11/12 02:21:46;;;;;;;7.60;5.40;;;;;;;2.20;100.00;103068.84;5048607;28;20117;-75
2022/11/12 02:24:33;;;;;;;9.85;5.68;;;;;;;2.25;100.00;103064.50;5059420;28;20115;-75
2022/11/12 02:27:17;;;;;;;11.27;5.75;;;;;;;2.29;100.00;103068.91;5059989;28;20484;-74
2022/11/12 02:30:01;;;;;;;16.17;6.43;;;;;;;2.24;100.00;103065.38;5060378;28;20511;-75
2022/11/12 02:32:45;;;;;;;9.77;5.13;;;;;;;2.21;100.00;103068.00;5057921;28;20090;-74
2022/11/12 02:35:30;;;;;;;12.32;5.95;;;;;;;2.16;100.00;103068.81;5060156;28;20054;-73
2022/11/12 02:38:14;;;;;;;8.52;5.57;;;;;;;2.11;100.00;103073.16;5059866;28;20058;-74
2022/11/12 02:40:58;;;;;;;8.55;5.70;;;;;;;2.02;100.00;103081.88;5060510;28;20491;-74
2022/11/12 02:43:42;;;;;;;12.15;5.82;;;;;;;2.04;100.00;103082.75;5060695;28;20047;-73
2022/11/12 02:46:26;;;;;;;12.90;6.30;;;;;;;2.09;100.00;103065.25;5059863;28;20055;-75
2022/11/12 02:49:10;;;;;;;10.45;5.85;;;;;;;2.02;100.00;103073.97;5060507;28;20043;-75
2022/11/12 02:51:54;;;;;;;12.05;6.20;;;;;;;1.90;100.00;103071.22;5044934;28;20044;-75
2022/11/12 02:54:38;;;;;;;13.20;6.03;;;;;;;1.96;100.00;103077.44;5060592;28;20578;-75
2022/11/12 02:57:23;;;;;;;9.90;6.32;;;;;;;2.05;100.00;103068.72;5060342;28;20131;-75
2022/11/12 03:00:10;;;;;;;12.52;7.20;;;;;;;2.06;100.00;103062.63;5054405;28;20060;-75
2022/11/12 03:03:01;;;;;;;10.90;6.65;;;;;;;2.18;100.00;103070.59;5060583;28;20059;-75
2022/11/12 03:05:54;;;;;;;11.50;7.25;;;;;;;2.35;100.00;103068.06;5053846;28;20091;-75
2022/11/12 03:08:38;;;;;;;9.00;5.78;;;;;;;2.43;100.00;103058.47;5060258;28;20113;-75
2022/11/12 03:11:22;;;;;;;11.23;6.47;;;;;;;2.44;100.00;103062.88;5044420;28;20147;-75
2022/11/12 03:14:06;;;;;;;12.07;7.82;;;;;;;2.47;100.00;103059.38;5059309;28;20049;-75
2022/11/12 03:16:50;;;;;;;10.50;6.80;;;;;;;2.43;100.00;103055.84;5061708;28;20051;-75
2022/11/12 03:19:34;;;;;;;10.43;6.50;;;;;;;2.51;100.00;103047.97;5061477;28;20097;-75
2022/11/12 03:22:18;;;;;;;10.25;6.97;;;;;;;2.58;100.00;103057.69;5062429;28;20653;-75
2022/11/12 03:25:02;;;;;;;14.10;7.90;;;;;;;2.61;100.00;103052.44;5062319;28;20047;-75
2022/11/12 03:27:46;;;;;;;12.40;8.32;;;;;;;2.60;100.00;103048.91;5062520;28;20056;-75
2022/11/12 03:30:33;;;;;;;11.95;7.45;;;;;;;2.68;100.00;103050.72;5062027;28;20075;-74
2022/11/12 03:33:17;;;;;;;13.85;7.32;;;;;;;2.74;100.00;103050.75;5039829;28;20052;-75
2022/11/12 03:36:02;;;;;;;15.55;7.55;;;;;;;2.73;100.00;103052.50;5050002;28;20051;-75
2022/11/12 03:38:46;;;;;;;11.45;7.15;;;;;;;2.75;100.00;103057.75;5055674;28;20109;-75
2022/11/12 03:41:30;;;;;;;17.20;8.23;;;;;;;2.75;100.00;103048.09;5044731;28;20400;-75
2022/11/12 03:44:14;;;;;;;19.50;8.85;;;;;;;2.72;100.00;103055.13;5046213;28;20059;-75
2022/11/12 03:46:58;;;;;;;16.98;9.25;;;;;;;2.69;100.00;103053.34;5038982;28;20135;-75
2022/11/12 03:49:42;;;;;;;12.80;7.68;;;;;;;2.66;100.00;103048.09;5059499;28;20056;-75
2022/11/12 03:52:26;;;;;;;18.25;8.57;;;;;;;2.58;100.00;103050.66;5052183;28;20043;-74
2022/11/12 03:55:10;;;;;;;14.90;8.07;;;;;;;2.60;100.00;103041.00;5058254;28;20097;-75
2022/11/12 03:57:55;;;;;;;13.93;7.70;;;;;;;2.64;100.00;103049.81;5057206;28;20055;-75
2022/11/12 04:00:39;;;;;;;16.20;7.63;;;;;;;2.75;100.00;103050.75;5060657;28;20056;-75
2022/11/12 04:03:23;;;;;;;17.95;7.38;;;;;;;2.67;100.00;103046.31;5060768;28;20056;-74
2022/11/12 04:09:10;;;;;;;12.95;6.05;;;;;;;1.96;100.00;103059.03;5055514;28;20059;-74
2022/11/12 04:11:54;;;;;;;9.98;6.20;;;;;;;2.00;100.00;103046.75;5060049;28;20079;-73
2022/11/12 04:14:38;;;;;;;13.10;6.88;;;;;;;2.00;100.00;103052.03;5060277;28;20056;-74
2022/11/12 04:23:28;;;;;;;16.83;7.43;;;;;;;2.13;100.00;103060.91;5058763;28;20495;-75
2022/11/12 04:26:24;;;;;;;13.13;7.88;;;;;;;2.15;100.00;103052.13;5054123;28;20054;-75
2022/11/12 04:32:11;;;;;;;17.65;9.43;;;;;;;2.22;100.00;103055.72;5059125;28;20408;-75
2022/11/12 04:34:56;;;;;;;13.90;7.38;;;;;;;2.23;100.00;103060.09;5058373;28;20093;-75
2022/11/12 04:37:43;;;;;;;16.75;7.75;;;;;;;2.25;100.00;103060.97;5058994;28;20131;-75
2022/11/12 04:46:33;;;;;;;16.38;8.10;;;;;;;2.32;100.00;103049.63;5057881;28;20075;-76
2022/11/12 04:49:17;;;;;;;13.82;8.05;;;;;;;2.30;100.00;103054.00;5057926;28;20063;-75
2022/11/12 04:52:04;;;;;;;14.05;7.70;;;;;;;2.30;100.00;103046.09;5056953;28;20588;-75
2022/11/12 04:54:48;;;;;;;17.25;9.43;;;;;;;2.28;100.00;103051.34;5056967;28;20058;-77
2022/11/12 04:57:32;;;;;;;16.08;8.05;;;;;;;2.31;100.00;103047.88;5057302;28;20047;-76
2022/11/12 05:00:16;;;;;;;16.45;8.45;;;;;;;2.30;100.00;103039.06;5057453;28;20102;-75
2022/11/12 05:03:00;;;;;;;21.20;9.98;;;;;;;2.26;100.00;103039.97;5057751;28;20056;-75
2022/11/12 05:05:44;;;;;;;14.40;9.10;;;;;;;2.25;100.00;103045.19;5055529;28;20114;-74
2022/11/12 05:08:28;;;;;;;14.40;7.60;;;;;;;1.88;100.00;103037.03;5056181;28;20091;-74
2022/11/12 05:11:12;;;;;;;12.70;7.65;;;;;;;1.78;100.00;103045.72;5056163;28;20872;-74
2022/11/12 05:13:56;;;;;;;10.77;7.28;;;;;;;1.88;100.00;103038.78;5056035;28;20593;-74
2022/11/12 05:16:40;;;;;;;14.18;8.20;;;;;;;1.79;100.00;103045.72;5055580;28;20055;-75
2022/11/12 05:19:25;;;;;;;13.43;7.20;;;;;;;1.63;100.00;103033.31;5052943;28;20106;-73
2022/11/12 05:22:10;;;;;;;14.07;7.57;;;;;;;1.66;100.00;103025.47;5057445;28;20132;-75
2022/11/12 05:24:54;;;;;;;12.23;7.10;;;;;;;1.77;100.00;103020.28;5053801;28;20129;-75
2022/11/12 05:27:38;;;;;;;16.02;7.38;;;;;;;1.83;100.00;103019.47;5039415;28;20617;-76
2022/11/12 05:30:22;;;;;;;16.05;8.30;;;;;;;1.87;100.00;103029.13;5052344;28;20055;-75
2022/11/12 05:33:06;;;;;;;14.60;7.65;;;;;;;1.90;100.00;103021.25;5043366;28;20151;-75
2022/11/12 05:35:50;;;;;;;15.00;7.57;;;;;;;1.88;100.00;103016.00;5043223;28;20110;-76
2022/11/12 05:38:37;;;;;;;14.55;7.95;;;;;;;2.00;100.00;103004.66;5057342;28;20511;-75
2022/11/12 05:41:21;;;;;;;13.40;8.20;;;;;;;1.96;100.00;103014.31;5053530;28;20186;-75
2022/11/12 05:44:05;;;;;;;16.95;8.20;;;;;;;1.98;100.00;103016.94;5058860;28;20047;-75
2022/11/12 05:46:49;;;;;;;15.35;7.88;;;;;;;1.88;100.00;103013.34;5054655;28;21115;-75
2022/11/12 05:49:33;;;;;;;12.90;6.95;;;;;;;1.69;100.00;103020.22;5033686;28;20048;-76
2022/11/12 05:52:17;;;;;;;11.82;6.80;;;;;;;1.66;100.00;103021.97;5037958;28;20052;-75
2022/11/12 05:55:01;;;;;;;14.68;7.95;;;;;;;1.79;100.00;103019.41;5033256;28;20052;-76
2022/11/12 05:57:45;;;;;;;17.08;9.05;;;;;;;2.00;100.00;103020.44;5038228;28;20071;-75
2022/11/12 06:00:29;;;;;;;15.00;7.65;;;;;;;2.08;100.00;103018.75;5040163;28;20128;-75
2022/11/12 06:03:13;;;;;;;16.30;8.80;;;;;;;2.11;100.00;103023.16;5020713;28;20128;-75
2022/11/12 06:05:58;;;;;;;10.68;6.20;;;;;;;2.10;100.00;103032.81;5019579;28;20082;-75
2022/11/12 06:08:41;;;;;;;12.77;7.20;;;;;;;1.92;100.00;103020.41;5039664;28;20129;-75
2022/11/12 06:11:25;;;;;;;13.65;7.82;;;;;;;2.06;100.00;103016.13;5039777;28;20611;-76
2022/11/12 06:14:09;;;;;;;12.57;6.57;;;;;;;1.78;100.00;103016.78;5024836;28;20051;-75
2022/11/12 06:16:54;;;;;;;14.07;7.18;;;;;;;1.57;100.00;103028.00;5040719;28;20560;-75
2022/11/12 06:19:37;;;;;;;16.35;7.78;;;;;;;1.57;100.00;103028.00;5038669;28;20052;-75
2022/11/12 06:22:21;;;;;;;14.75;7.53;;;;;;;1.64;100.00;103032.44;5026445;28;20051;-75
2022/11/12 06:25:06;;;;;;;10.45;6.15;;;;;;;1.71;100.00;103038.66;5034080;28;20107;-75
2022/11/12 06:27:50;;;;;;;9.88;6.03;;;;;;;1.74;100.00;103033.41;5020430;28;20056;-75
2022/11/12 06:30:34;;;;;;;11.27;5.88;;;;;;;1.80;100.00;103031.69;5038888;28;20382;-75
2022/11/12 06:33:18;;;;;;;12.43;6.22;;;;;;;1.54;100.00;103042.00;5035189;28;20051;-75
2022/11/12 06:36:04;;;;;;;47.42;8.93;;;;;;;1.46;100.00;103043.69;5038763;28;20754;-75
2022/11/12 06:38:48;;;;;;;62.28;12.13;;;;;;;1.53;100.00;103047.25;5038772;28;20107;-75
2022/11/12 06:41:32;;;;;;;22.00;9.52;;;;;;;1.61;100.00;103032.44;5039232;28;20052;-75
2022/11/12 06:44:16;;;;;;;23.75;8.75;;;;;;;1.74;100.00;103036.03;5038199;28;20091;-75
2022/11/12 06:47:00;;;;;;;14.85;9.10;;;;;;;1.83;100.00;103032.59;5039834;28;20166;-76
2022/11/12 06:49:44;;;;;;;17.67;8.45;;;;;;;1.90;100.00;103029.16;5062548;28;20047;-75
2022/11/12 06:52:28;;;;;;;14.75;8.50;;;;;;;1.88;100.00;103030.91;5047207;28;20102;-75
2022/11/12 06:55:12;;;;;;;16.42;8.57;;;;;;;1.90;100.00;103029.16;5062801;28;20495;-75
2022/11/12 06:57:56;;;;;;;12.52;8.50;;;;;;;1.94;100.00;103034.44;5047413;28;20047;-75
2022/11/12 07:00:41;;;;;;;14.20;7.95;;;;;;;1.94;100.00;103028.31;5063649;28;20071;-75
2022/11/12 07:03:24;;;;;;;12.85;8.30;;;;;;;2.00;100.00;103033.59;5061809;28;20047;-75
2022/11/12 07:06:11;;;;;;;17.25;8.20;;;;;;;2.03;100.00;103031.88;5063545;28;20920;-75
2022/11/12 07:08:55;;;;;;;14.52;8.25;;;;;;;1.97;100.00;103044.13;5063290;28;20113;-75
2022/11/12 07:11:39;;;;;;;19.20;8.70;;;;;;;1.81;100.00;103044.00;5060532;28;20059;-75
2022/11/12 07:14:23;;;;;;;13.35;7.68;;;;;;;1.77;100.00;103051.84;5063272;28;20075;-75
2022/11/12 07:17:07;;;;;;;12.52;6.55;;;;;;;1.71;100.00;103059.69;5063191;28;20047;-74
2022/11/12 07:19:51;;;;;;;17.52;9.05;;;;;;;1.75;100.00;103051.81;5061053;28;20865;-75
2022/11/12 07:22:35;;;;;;;19.30;8.65;;;;;;;1.89;100.00;103059.84;5060175;28;20090;-75
2022/11/12 07:25:19;;;;;;;24.02;9.52;;;;;;;2.00;100.00;103057.28;5058072;28;20124;-75
2022/11/12 07:28:04;;;;;;;20.67;9.25;;;;;;;2.06;100.00;103054.72;5058954;28;20102;-76
2022/11/12 07:30:54;;;;;;;15.77;8.50;;;;;;;2.19;100.00;103058.31;5053158;28;20055;-74
2022/11/12 07:33:38;;;;;;;17.77;9.27;;;;;;;2.05;100.00;103071.34;5060629;28;20664;-75
2022/11/12 07:36:22;;;;;;;17.67;8.30;;;;;;;2.03;100.00;103073.97;5060274;28;20047;-75
2022/11/12 07:39:06;;;;;;;17.52;8.20;;;;;;;2.14;100.00;103073.19;5051724;28;20044;-75
2022/11/12 07:41:50;;;;;;;17.80;9.00;;;;;;;2.48;100.00;103066.41;5044340;28;20052;-75
2022/11/12 07:44:34;;;;;;;21.63;9.52;;;;;;;2.71;100.00;103051.63;5060328;28;20121;-75
2022/11/12 07:47:18;;;;;;;15.63;8.93;;;;;;;2.83;100.00;103054.31;5062028;28;20137;-75
2022/11/12 07:50:02;;;;;;;16.40;9.27;;;;;;;2.81;100.00;103058.69;5057670;28;20055;-75
2022/11/12 07:52:46;;;;;;;19.23;9.80;;;;;;;2.96;100.00;103067.50;5055180;28;20404;-75
2022/11/12 07:55:30;;;;;;;17.38;9.55;;;;;;;2.92;100.00;103064.00;5056422;28;20059;-75
2022/11/12 07:58:14;;;;;;;16.58;9.27;;;;;;;3.19;100.00;103073.75;5060240;28;20841;-75
2022/11/12 08:01:24;;;;;;;16.48;9.55;;;;;;;3.29;100.00;103069.41;5060635;28;20787;-75
2022/11/12 08:04:10;;;;;;;20.50;8.68;;;;;;;3.44;100.00;103068.56;5061197;28;20082;-75
2022/11/12 08:06:55;;;;;;;16.40;9.18;;;;;;;3.52;100.00;103069.47;5058121;28;20047;-74
2022/11/12 08:09:39;;;;;;;22.73;11.90;;;;;;;3.62;100.00;103071.25;5061720;28;20148;-75
2022/11/12 08:12:23;;;;;;;19.33;11.25;;;;;;;3.73;100.00;103080.03;5061547;28;20059;-75
2022/11/12 08:15:07;;;;;;;16.70;9.43;;;;;;;3.77;100.00;103078.28;5057729;28;20586;-75
2022/11/12 08:17:51;;;;;;;18.15;9.07;;;;;;;3.93;100.00;103081.81;5061716;28;20047;-75
2022/11/12 08:20:35;;;;;;;21.42;11.90;;;;;;;3.96;100.00;103084.44;5051705;28;20139;-75
2022/11/12 08:23:19;;;;;;;19.30;10.88;;;;;;;4.01;100.00;103080.03;5058051;28;20052;-75
2022/11/12 08:26:05;;;;;;;16.80;10.20;;;;;;;4.14;100.00;103084.44;5056063;28;20096;-75
2022/11/12 08:28:50;;;;;;;18.55;11.20;;;;;;;4.29;100.00;103091.47;5057986;28;20123;-76
2022/11/12 08:31:34;;;;;;;15.48;9.75;;;;;;;4.42;100.00;103087.94;5039053;28;20488;-75
2022/11/12 08:34:18;;;;;;;24.70;14.07;;;;;;;4.59;100.00;103095.84;5058921;28;20145;-75
2022/11/12 08:37:01;;;;;;;25.08;13.48;;;;;;;4.75;100.00;103086.97;5057890;28;20044;-74
2022/11/12 08:39:46;;;;;;;26.95;13.43;;;;;;;5.01;100.00;103091.28;5050453;28;20056;-74
2022/11/12 08:42:29;;;;;;;29.75;15.90;;;;;;;5.09;100.00;103090.38;5052155;28;20507;-74
2022/11/12 08:45:13;;;;;;;41.85;17.17;;;;;;;5.28;100.00;103098.25;5059045;28;20055;-75
2022/11/12 08:47:59;;;;;;;56.58;20.45;;;;;;;5.53;100.00;103105.16;5058067;28;20151;-74
2022/11/12 08:50:43;;;;;;;42.80;20.85;;;;;;;5.69;100.00;103098.88;5049008;28;20079;-76
2022/11/12 08:53:27;;;;;;;42.92;18.48;;;;;;;5.63;100.00;103092.75;5054463;28;20085;-74
2022/11/12 08:56:11;;;;;;;28.85;16.85;;;;;;;5.77;100.00;103097.94;5041254;28;20494;-76
2022/11/12 08:58:55;;;;;;;28.63;17.13;;;;;;;5.84;100.00;103095.25;5047226;28;20814;-74
2022/11/12 09:01:39;;;;;;;28.25;17.17;;;;;;;5.94;100.00;103096.97;5051839;28;20174;-75
2022/11/12 09:04:23;;;;;;;25.67;16.75;;;;;;;6.00;100.00;103095.16;5052260;28;20080;-75
2022/11/12 09:07:07;;;;;;;30.55;18.50;;;;;;;6.11;100.00;103098.59;5053614;28;20044;-76
2022/11/12 09:09:51;;;;;;;34.58;17.42;;;;;;;6.26;100.00;103085.19;5032668;28;20576;-76
2022/11/12 09:12:35;;;;;;;34.60;17.77;;;;;;;6.44;100.00;103086.81;5053375;28;20040;-75
2022/11/12 09:15:21;;;;;;;30.88;17.88;;;;;;;6.55;100.00;103089.34;5035365;28;20118;-75
2022/11/12 09:18:11;;;;;;;32.10;17.90;;;;;;;6.70;100.00;103086.53;5029022;28;20513;-76
2022/11/12 09:21:00;;;;;;;30.77;17.13;;;;;;;6.91;100.00;103091.59;5053143;28;20091;-76
2022/11/12 09:23:44;;;;;;;30.40;17.30;;;;;;;7.03;100.00;103089.66;5031532;28;20539;-75
2022/11/12 09:26:28;;;;;;;36.55;17.88;;;;;;;7.20;100.00;103093.00;5057761;28;20135;-76
2022/11/12 09:29:12;;;;;;;28.27;16.50;;;;;;;7.35;100.00;103103.41;5057826;28;20532;-76
2022/11/12 09:31:58;;;;;;;31.45;17.98;;;;;;;7.49;100.00;103098.78;5046866;28;20151;-75
2022/11/12 09:34:42;;;;;;;30.15;15.90;;;;;;;7.62;100.00;103096.81;5040082;28;20530;-76
2022/11/12 09:37:26;;;;;;;32.63;17.77;;;;;;;7.79;100.00;103093.94;5055185;28;20118;-76
2022/11/12 09:40:17;;;;;;;33.83;18.70;;;;;;;7.93;100.00;103091.94;5054219;28;20047;-76
2022/11/12 09:43:10;;;;;;;44.88;27.08;;;;;;;8.07;100.00;103098.78;5053597;28;20555;-76
2022/11/12 09:46:01;;;;;;;40.80;25.17;;;;;;;8.21;100.00;103096.78;5056882;28;20047;-76
2022/11/12 09:48:52;;;;;;;43.38;23.90;;;;;;;8.34;100.00;103093.03;5057087;28;20055;-75
2022/11/12 09:51:48;;;;;;;36.28;19.58;;;;;;;8.38;100.00;103093.84;5057754;28;20070;-76
2022/11/12 09:54:35;;;;;;;34.45;20.10;;;;;;;8.45;100.00;103098.16;5057959;28;20056;-76
2022/11/12 09:57:19;;;;;;;28.92;17.15;;;;;;;8.55;100.00;103099.75;5054204;28;20102;-76
2022/11/12 10:00:15;;;;;;;24.83;15.38;;;;;;;8.79;100.00;103090.44;5057151;28;20090;-76
2022/11/12 10:03:11;;;;;;;24.05;15.02;;;;;;;8.95;100.00;103101.66;5041392;28;20044;-76
2022/11/12 10:06:02;;;;;;;25.25;13.25;;;;;;;9.09;100.00;103096.94;5050916;28;20071;-75
2022/11/12 10:09:03;;;;;;;22.58;13.23;;;;;;;9.12;100.00;103090.66;5054173;28;20063;-76
2022/11/12 10:19:04;;;;;;;15.02;7.97;;;;;;;9.48;100.00;103076.50;5046788;28;20060;-76
2022/11/12 10:22:20;;;;;;;14.60;7.97;;;;;;;9.57;100.00;103078.97;5055316;28;20113;-76
2022/11/12 10:25:16;;;;;;;19.20;9.20;;;;;;;9.63;100.00;103071.75;5043901;28;20051;-75
2022/11/12 10:28:13;;;;;;;16.02;8.77;;;;;;;9.66;100.00;103075.22;5050612;28;20087;-76
2022/11/12 10:31:09;;;;;;;19.38;9.65;;;;;;;9.75;100.00;103080.34;5060229;28;20508;-76
2022/11/12 10:34:16;;;;;;;14.57;8.82;;;;;;;9.88;100.00;103072.91;5058007;28;20515;-76
2022/11/12 10:37:05;;;;;;;15.40;7.93;;;;;;;9.94;100.00;103062.13;5044319;28;20063;-76
2022/11/12 10:39:49;;;;;;;15.70;8.85;;;;;;;9.98;100.00;103063.75;5057319;28;20541;-76
2022/11/12 10:42:33;;;;;;;17.40;8.65;;;;;;;10.18;100.00;103057.06;5045499;28;20774;-76
2022/11/12 10:45:20;;;;;;;17.40;9.23;;;;;;;10.18;100.00;103057.06;5056781;28;20068;-76
2022/11/12 10:48:18;;;;;;;16.35;9.57;;;;;;;10.30;100.00;103056.78;5055927;28;20893;-76
2022/11/12 10:51:19;;;;;;;20.33;9.63;;;;;;;10.44;100.00;103064.38;5058814;28;20051;-76
2022/11/12 10:54:28;;;;;;;14.40;7.47;;;;;;;10.53;100.00;103051.69;5042401;28;20094;-76
2022/11/12 10:57:19;;;;;;;15.15;7.95;;;;;;;10.59;100.00;103042.63;5044726;28;20164;-76
2022/11/12 11:00:24;;;;;;;13.90;7.90;;;;;;;10.77;100.00;103054.59;5054637;28;20064;-76
2022/11/12 11:03:19;;;;;;;15.25;8.18;;;;;;;10.80;100.00;103039.38;5050667;28;20068;-75
2022/11/12 11:06:12;;;;;;;33.58;16.95;;;;;;;11.08;100.00;103034.06;5050571;28;20539;-76
2022/11/12 11:09:12;;;;;;;27.50;14.15;;;;;;;11.04;100.00;103037.75;5049717;28;20047;-76
2022/11/12 11:11:57;;;;;;;30.75;12.65;;;;;;;11.18;100.00;103031.13;5052938;28;20056;-76
2022/11/12 11:14:43;;;;;;;20.70;11.52;;;;;;;11.12;100.00;103033.06;5055461;28;20046;-75
2022/11/12 11:17:27;;;;;;;31.02;15.02;;;;;;;11.15;100.00;103029.44;5053130;28;20097;-76
2022/11/12 11:20:40;;;;;;;34.72;14.85;;;;;;;11.30;100.00;103023.63;5053375;28;20056;-76
2022/11/12 11:23:33;;;;;;;23.58;10.98;;;;;;;11.48;100.00;103015.94;5059389;28;20089;-76
2022/11/12 11:26:35;;;;;;;26.15;12.45;;;;;;;11.64;100.00;103003.81;5055903;28;20043;-76
2022/11/12 11:29:21;;;;;;;20.40;11.83;;;;;;;11.76;100.00;103010.56;5061423;28;20098;-76
2022/11/12 11:32:41;;;;;;;26.02;12.20;;;;;;;11.77;100.00;103006.97;5055718;28;20454;-76
2022/11/12 11:35:38;;;;;;;37.10;13.82;;;;;;;11.71;100.00;102996.47;5057814;28;20392;-76
2022/11/12 11:38:33;;;;;;;26.10;11.20;;;;;;;12.03;98.41;103003.41;5057088;28;20055;-76
2022/11/12 11:41:44;;;;;;;19.58;8.70;;;;;;;12.14;100.00;102993.22;5058780;28;20459;-76
2022/11/12 11:44:44;;;;;;;14.27;7.75;;;;;;;12.19;99.38;102985.91;5055945;28;20085;-76
2022/11/12 11:47:41;;;;;;;10.80;6.47;;;;;;;12.16;99.26;102981.56;5058512;28;20087;-76
2022/11/12 11:50:28;;;;;;;13.25;6.82;;;;;;;12.33;100.00;102985.41;5046235;28;20055;-75
2022/11/12 11:53:45;;;;;;;11.48;6.35;;;;;;;12.56;95.73;102992.59;5059417;28;20075;-76
2022/11/12 11:56:35;;;;;;;12.20;6.88;;;;;;;12.40;97.34;102986.94;4971539;28;20053;-76
2022/11/12 11:59:28;;;;;;;14.52;7.40;;;;;;;12.58;100.00;102991.59;4971036;28;20439;-77
2022/11/12 12:02:33;;;;;;;;;;;;;;;12.62;100.00;102985.22;4977394;28;20982;-76
2022/11/12 12:05:17;;;;;;;14.50;9.27;;;;;;;12.75;100.00;102980.28;4974096;28;20073;-76
2022/11/12 12:08:23;;;;;;;13.52;7.18;;;;;;;12.70;100.00;102974.19;4972820;28;20093;-75
2022/11/12 12:11:28;;;;;;;14.73;8.00;;;;;;;12.70;98.86;102968.84;4963364;28;20721;-76
2022/11/12 12:14:23;;;;;;;13.40;7.93;;;;;;;12.76;100.00;102970.44;4978515;28;20089;-75
2022/11/12 12:17:32;;;;;;;15.18;8.30;;;;;;;12.78;97.85;102973.91;4976350;28;20053;-75
2022/11/12 12:20:32;;;;;;;15.98;8.43;;;;;;;12.89;97.03;102977.03;4977635;28;20442;-76
2022/11/12 12:23:35;;;;;;;14.68;9.05;;;;;;;12.87;100.00;102976.25;4963991;28;20053;-76
2022/11/12 12:26:21;;;;;;;13.57;9.18;;;;;;;12.95;100.00;102982.16;4977986;28;20219;-76
2022/11/12 12:29:18;;;;;;;12.88;8.90;;;;;;;13.04;100.00;102979.13;4971399;28;20094;-76
2022/11/12 12:32:12;;;;;;;12.90;7.75;;;;;;;13.25;100.00;102974.75;4969064;28;20053;-76
2022/11/12 12:35:15;;;;;;;16.40;10.00;;;;;;;13.09;100.00;102974.47;5057769;28;20820;-75
2022/11/12 12:38:21;;;;;;;17.05;9.75;;;;;;;13.14;100.00;102974.28;5055286;28;20047;-76
2022/11/12 12:41:15;;;;;;;13.25;8.68;;;;;;;13.15;100.00;102973.34;5058687;28;20413;-76
2022/11/12 12:44:05;;;;;;;14.15;9.35;;;;;;;13.11;100.00;102969.06;5035641;28;20206;-76
2022/11/12 12:46:59;;;;;;;14.15;9.40;;;;;;;13.16;100.00;102962.59;5056868;28;20400;-76
2022/11/12 12:49:46;;;;;;;19.77;12.35;;;;;;;13.17;98.04;102960.78;5056830;28;20051;-76
2022/11/12 12:53:04;;;;;;;16.13;10.15;;;;;;;13.20;98.93;102961.53;5054861;28;20051;-76
2022/11/12 12:55:50;;;;;;;12.90;7.47;;;;;;;13.24;96.45;102954.25;5057788;28;20135;-76
2022/11/12 12:58:44;;;;;;;16.17;8.95;;;;;;;13.21;99.75;102951.69;5057368;28;20964;-77
2022/11/12 13:01:34;;;;;;;16.35;8.98;;;;;;;13.11;100.00;102950.31;5041675;28;20043;-76
2022/11/12 13:04:51;;;;;;;14.82;8.52;;;;;;;13.23;100.00;102957.00;5111004;27;20135;-74
2022/11/12 13:07:47;;;;;;;11.27;7.05;;;;;;;13.13;100.00;102962.69;5104889;28;20053;-73
2022/11/12 13:10:40;;;;;;;12.90;7.68;;;;;;;13.15;100.00;102962.63;5108317;28;20071;-72
2022/11/12 13:13:30;;;;;;;11.90;7.30;;;;;;;13.15;100.00;102950.13;5098182;28;20054;-74
2022/11/12 13:16:49;;;;;;;15.20;7.68;;;;;;;13.12;99.40;102942.19;5076890;28;20071;-73